Thunder radar more information blitzortung!


Radar de pluja more information rain snow radar


Visita la nostra xarxa de llocs de meteo:

Template documentation
and downloads

And another site



No particular awareness of the weather is required.    There are no Weather-warnings

Pagina Historial Weather Underground text

Diari Resum Marc 8, 2016 Unitats:  Mètric    Imperial   Tant
« Previous Dia
SegĂźent Dia »
Diari Setmana Mensual Anual Personalitzada
  Maxima: Minima: Media:
Temperatura: -17.8 °C -16.7 °C -11.9 °C
Punt de rosada: -17.8 °C -22.3 °C -18.7 °C
Humitat: Humidity % 21 % 45 %
Wind Speed: 0 km/h 0 km/h 11.1 km/h
RĂ fegues de vent: 0 km/h - -
Vent:- - SE
Pression baro: 0 hPa 34327.3 hPa -
Precipitacions: 0 mm    
Historical Graphs
 
 
Dades de taula per Marc 8, 2016
Temps Temperatura Punt de rosada Pression baro Vent Wind Speed RĂ fegues de vent Humitat Rainfall Rate (Hourly)
-17.8 °C -17.8 °C 0 hPa Calm     Humidity % 0 mm
02:05 -14.7 °C -19.3 °C 34327.3 hPa WSW 2.6 km/h 5.1 km/h 55 % 0 mm
02:15 -14.7 °C -19.3 °C 34327.3 hPa WSW 2.6 km/h 5.1 km/h 55 % 0 mm
02:25 -14.5 °C -19.1 °C 34327.3 hPa WSW 2.6 km/h 5.1 km/h 55 % 0 mm
02:35 -14 °C -18.7 °C 34361.1 hPa WSW 2.6 km/h 10.3 km/h 55 % 0 mm
02:45 -13.9 °C -18.7 °C 34361.1 hPa WSW 2.6 km/h 7.7 km/h 54 % 0 mm
02:55 -13.8 °C -18.6 °C 34361.1 hPa NW 5.1 km/h 10.3 km/h 54 % 0 mm
03:05 -13.8 °C -18.6 °C 34361.1 hPa NNE 5.1 km/h 10.3 km/h 54 % 0 mm
03:15 -13.4 °C -18.3 °C 34361.1 hPa NNW 7.7 km/h 10.3 km/h 54 % 0 mm
03:25 -13.4 °C -18.2 °C 34361.1 hPa NE 5.1 km/h 7.7 km/h 54 % 0 mm
03:35 -13.4 °C -18.4 °C 34361.1 hPa NE 5.1 km/h 10.3 km/h 53 % 0 mm
03:45 -13.2 °C -18.2 °C 34361.1 hPa NE 7.7 km/h 10.3 km/h 53 % 0 mm
03:55 -12.8 °C -17.8 °C 34361.1 hPa NE 7.7 km/h 10.3 km/h 53 % 0 mm
04:05 -12.7 °C -17.9 °C 34395 hPa ENE 2.6 km/h 15.6 km/h 52 % 0 mm
04:15 -12.7 °C -17.9 °C 34395 hPa NE 7.7 km/h 10.3 km/h 52 % 0 mm
04:25 -12.4 °C -17.8 °C 34395 hPa NE 5.1 km/h 10.3 km/h 51 % 0 mm
10:35 -12.3 °C -17.7 °C 34395 hPa NNE 6 km/h 6 km/h 51 % 0 mm
10:41 -12.1 °C -17.4 °C 34395 hPa ENE 6 km/h 6 km/h 51 % 0 mm
10:46 -11.9 °C -17.4 °C 34395 hPa NNE 6.8 km/h 6.8 km/h 50 % 0 mm
10:51 -11.8 °C -17.4 °C 34395 hPa NNE 3.1 km/h 3.1 km/h 50 % 0 mm
10:56 -11.7 °C -17.3 °C 34395 hPa SW 9 km/h 9 km/h 50 % 0 mm
11:01 -11.7 °C -17.6 °C 34395 hPa NE 6.3 km/h 6.3 km/h 48 % 0 mm
11:06 -11.5 °C -17.4 °C 34395 hPa NE 9 km/h 9 km/h 48 % 0 mm
11:11 -11.4 °C -17.3 °C 34395 hPa NE 4.2 km/h 4.2 km/h 48 % 0 mm
11:16 -11.3 °C -17.4 °C 34395 hPa NE 9 km/h 9 km/h 47 % 0 mm
11:21 -11.3 °C -17.4 °C 34395 hPa ENE 11.1 km/h 11.1 km/h 47 % 0 mm
11:26 -11.3 °C -17.4 °C 34395 hPa ENE 11.9 km/h 11.9 km/h 47 % 0 mm
11:31 -11.2 °C -17.4 °C 34395 hPa ENE 11.9 km/h 11.9 km/h 46 % 0 mm
11:36 -11.2 °C -17.4 °C 34395 hPa East 11.9 km/h 11.9 km/h 46 % 0 mm
11:46 -10.9 °C -17.3 °C 34395 hPa SW 11.9 km/h 11.9 km/h 45 % 0 mm
11:51 -10.8 °C -17.4 °C 34395 hPa SW 9 km/h 9 km/h 44 % 0 mm
11:56 -10.7 °C -17.5 °C 34395 hPa ENE 15 km/h 15 km/h 43 % 0 mm
12:01 -10.7 °C -17.5 °C 34395 hPa NW 11.9 km/h 11.9 km/h 43 % 0 mm
12:06 -10.4 °C -18 °C 34395 hPa SW 16.6 km/h 16.6 km/h 39 % 0 mm
12:11 -10.2 °C -18.2 °C 34395 hPa WSW 9.3 km/h 9.3 km/h 37 % 0 mm
12:16 -10.2 °C -18.6 °C 34361.1 hPa NW 11.9 km/h 11.9 km/h 35 % 0 mm
12:21 -10.2 °C -19.3 °C 34361.1 hPa WSW 17.9 km/h 17.9 km/h 32 % 0 mm
12:26 -10.1 °C -19.2 °C 34361.1 hPa NNE 11.9 km/h 11.9 km/h 32 % 0 mm
12:31 -10.1 °C -19.4 °C 34395 hPa SW 15 km/h 15 km/h 31 % 0 mm
12:36 -10.1 °C -19.4 °C 34395 hPa West 9.3 km/h 9.3 km/h 31 % 0 mm
12:41 -9.8 °C -19.2 °C 34361.1 hPa SW 6 km/h   31 % 0 mm
12:46 -9.7 °C -19.1 °C 34361.1 hPa NNE 17.9 km/h 17.9 km/h 31 % 0 mm
12:51 -9.8 °C -19.2 °C 34361.1 hPa NNW 11.9 km/h 11.9 km/h 31 % 0 mm
12:56 -9.9 °C -19.3 °C 34395 hPa West 9 km/h 9 km/h 31 % 0 mm
13:01 -9.8 °C -19.2 °C 34395 hPa WNW 9 km/h 9 km/h 31 % 0 mm
13:06 -9.8 °C -19.5 °C 34395 hPa SW 6.8 km/h 6.8 km/h 30 % 0 mm
13:11 -9.7 °C -19.3 °C 34361.1 hPa NNE 11.9 km/h 11.9 km/h 30 % 0 mm
13:16 -9.8 °C -19.7 °C 34361.1 hPa SW 17.9 km/h 17.9 km/h 29 % 0 mm
13:21 -9.6 °C -19.3 °C 34361.1 hPa SSW 14.5 km/h 14.5 km/h 30 % 0 mm
13:26 -9.7 °C -19.6 °C 34361.1 hPa WSW 11.9 km/h 11.9 km/h 29 % 0 mm
13:31 -9.5 °C -19.4 °C 34361.1 hPa South 17.9 km/h 17.9 km/h 29 % 0 mm
13:37 -9.4 °C -19.7 °C 34361.1 hPa NNE 26.9 km/h 26.9 km/h 28 % 0 mm
13:42 -9.3 °C -19.5 °C 34361.1 hPa WNW 15 km/h 15 km/h 28 % 0 mm
13:47 -9 °C -19.3 °C 34361.1 hPa SSW 6.3 km/h 6.3 km/h 28 % 0 mm
13:52 -9.2 °C -19.8 °C 34361.1 hPa NW 15 km/h 15 km/h 27 % 0 mm
13:57 -9.6 °C -20.1 °C 34361.1 hPa South 6 km/h 6 km/h 27 % 0 mm
14:02 -9.4 °C -19.6 °C 34361.1 hPa WNW 11.9 km/h 11.9 km/h 28 % 0 mm
14:07 -9.2 °C -19.8 °C 34361.1 hPa SSW 11.9 km/h 11.9 km/h 27 % 0 mm
14:12 -9.4 °C -19.9 °C 34361.1 hPa NNE 5.1 km/h 5.1 km/h 27 % 0 mm
14:17 -9.5 °C -19.9 °C 34361.1 hPa North 15 km/h 15 km/h 27 % 0 mm
14:22 -9.3 °C -19.5 °C 34361.1 hPa SSW 14.5 km/h 14.5 km/h 28 % 0 mm
14:27 -9.1 °C -19.4 °C 34361.1 hPa WSW 11.9 km/h 11.9 km/h 28 % 0 mm
14:32 -9.1 °C -19.6 °C 34361.1 hPa West 15 km/h 15 km/h 27 % 0 mm
14:37 -8.9 °C -19.2 °C 34361.1 hPa WSW 15 km/h 15 km/h 28 % 0 mm
14:42 -8.9 °C -19.5 °C 34361.1 hPa NW 20.9 km/h 20.9 km/h 27 % 0 mm
14:47 -8.9 °C -19.4 °C 34361.1 hPa WSW 12.2 km/h 12.2 km/h 27 % 0 mm
14:52 -8.9 °C -19.7 °C 34361.1 hPa SW 17.9 km/h 17.9 km/h 26 % 0 mm
14:57 -9.1 °C -19.9 °C 34361.1 hPa West 16.6 km/h 16.6 km/h 26 % 0 mm
15:02 -9.1 °C -20.2 °C 34361.1 hPa WSW 17.9 km/h 17.9 km/h 25 % 0 mm
15:07 -9 °C -20.1 °C 34361.1 hPa WSW 19.2 km/h 19.2 km/h 25 % 0 mm
15:12 -9.1 °C -20.2 °C 34361.1 hPa WSW 17.9 km/h 17.9 km/h 25 % 0 mm
15:17 -9.2 °C -20.6 °C 34361.1 hPa SW 23.8 km/h 23.8 km/h 24 % 0 mm
15:22 -9 °C -20.1 °C 34361.1 hPa WSW 9 km/h 9 km/h 25 % 0 mm
15:27 -8.8 °C -20.3 °C 34361.1 hPa WSW 15 km/h 15 km/h 24 % 0 mm
15:32 -8.9 °C -20.7 °C 34361.1 hPa West 23.8 km/h 23.8 km/h 23 % 0 mm
15:37 -9 °C -20.7 °C 34361.1 hPa WSW 11.9 km/h 11.9 km/h 23 % 0 mm
15:42 -8.9 °C -20.3 °C 34361.1 hPa SW 14.5 km/h 14.5 km/h 24 % 0 mm
15:47 -8.8 °C -20.6 °C 34361.1 hPa SW 23.8 km/h 23.8 km/h 23 % 0 mm
15:52 -8.8 °C -20.6 °C 34361.1 hPa WNW 20.9 km/h 20.9 km/h 23 % 0 mm
15:57 -8.6 °C -20.1 °C 34327.3 hPa West 15 km/h 15 km/h 24 % 0 mm
16:02 -8.8 °C -20.9 °C 34327.3 hPa NNE 17.9 km/h 17.9 km/h 22 % 0 mm
16:07 -8.9 °C -20.7 °C 34327.3 hPa WSW 15 km/h 15 km/h 23 % 0 mm
16:12 -8.7 °C -20.8 °C 34361.1 hPa WSW 20.3 km/h 20.3 km/h 22 % 0 mm
16:17 -8.7 °C -20.4 °C 34361.1 hPa SW 9 km/h 9 km/h 23 % 0 mm
16:22 -8.8 °C -20.9 °C 34361.1 hPa SSW 11.9 km/h 11.9 km/h 22 % 0 mm
16:27 -8.9 °C -21.3 °C 34361.1 hPa WSW 20.9 km/h 20.9 km/h 21 % 0 mm
16:32 -8.9 °C -21.3 °C 34361.1 hPa WNW 15 km/h 15 km/h 21 % 0 mm
16:37 -8.7 °C -20.8 °C 34361.1 hPa West 9.8 km/h 9.8 km/h 22 % 0 mm
16:42 -8.6 °C -20.7 °C 34361.1 hPa WSW 9.8 km/h 9.8 km/h 22 % 0 mm
16:47 -8.7 °C -20.8 °C 34361.1 hPa WSW 9 km/h 9 km/h 22 % 0 mm
16:52 -8.7 °C -20.8 °C 34361.1 hPa SW 9 km/h 9 km/h 22 % 0 mm
16:57 -8.7 °C -20.8 °C 34361.1 hPa NW 10.3 km/h 10.3 km/h 22 % 0 mm
17:02 -9.2 °C -18.9 °C 34361.1 hPa NNE 26.9 km/h 26.9 km/h 30 % 0 mm
17:07 -9.9 °C -19.3 °C 34361.1 hPa ENE 17.9 km/h 17.9 km/h 31 % 0 mm
17:12 -10.1 °C -19.2 °C 34361.1 hPa East 11.9 km/h 11.9 km/h 32 % 0 mm
17:17 -10.3 °C -19.2 °C 34361.1 hPa NE 18.3 km/h 18.3 km/h 33 % 0 mm
17:22 -10.4 °C -19.1 °C 34361.1 hPa NNE 23.8 km/h 23.8 km/h 34 % 0 mm
17:27 -10.8 °C -18.9 °C 34395 hPa ENE 15.3 km/h 17.9 km/h 36 % 0 mm
17:32 -10.8 °C -18 °C 34395 hPa NNE 25.9 km/h 25.9 km/h 41 % 0 mm
17:37 -11.1 °C -17.7 °C 34395 hPa NNE 23.8 km/h 23.8 km/h 44 % 0 mm
17:42 -11.2 °C -17.4 °C 34395 hPa ESE 16.1 km/h 16.1 km/h 46 % 0 mm
17:47 -11.4 °C -17 °C 34395 hPa ENE 23.8 km/h 23.8 km/h 50 % 0 mm
17:52 -11.5 °C -17.1 °C 34395 hPa ESE 23.8 km/h 23.8 km/h 50 % 0 mm
17:57 -11.6 °C -17.1 °C 34395 hPa ESE 26.9 km/h 26.9 km/h 51 % 0 mm
18:02 -11.6 °C -17.1 °C 34395 hPa ESE 9 km/h 12.2 km/h 51 % 0 mm
18:07 -11.6 °C -17.1 °C 34395 hPa ENE 17.9 km/h 17.9 km/h 51 % 0 mm
18:17 -11.8 °C -17.2 °C 34395 hPa ENE 17.9 km/h 17.9 km/h 51 % 0 mm
18:22 -11.9 °C -17.3 °C 34395 hPa ENE 15 km/h 15 km/h 51 % 0 mm
18:27 -11.9 °C -17.3 °C 34395 hPa ESE 15 km/h 15 km/h 51 % 0 mm
18:32 -11.9 °C -17.3 °C 34395 hPa NNE 23.8 km/h 23.8 km/h 51 % 0 mm
18:37 -11.9 °C -17.2 °C 34395 hPa NNE 15 km/h 15 km/h 52 % 0 mm
18:42 -12 °C -17.4 °C 34395 hPa ESE 7.6 km/h 9.8 km/h 51 % 0 mm
18:47 -12.1 °C -17.4 °C 34395 hPa East 9 km/h 9 km/h 51 % 0 mm
18:52 -12.1 °C -17.3 °C 34395 hPa ENE 11.9 km/h 11.9 km/h 52 % 0 mm
18:57 -12.2 °C -17.4 °C 34395 hPa ENE 9.8 km/h 9.8 km/h 52 % 0 mm
19:02 -12.2 °C -17.4 °C 34395 hPa East 12.2 km/h 12.2 km/h 52 % 0 mm
19:07 -12.2 °C -17.4 °C 34395 hPa NNE 11.9 km/h 11.9 km/h 52 % 0 mm
19:12 -12.3 °C -17.3 °C 34395 hPa ENE 12.7 km/h 12.7 km/h 53 % 0 mm
19:17 -12.3 °C -17.3 °C 34395 hPa East 9 km/h 9.3 km/h 54 % 0 mm
19:22 -12.4 °C -17.4 °C 34395 hPa NE 15.3 km/h 15.3 km/h 53 % 0 mm
19:27 -12.4 °C -17.4 °C 34428.8 hPa ENE 11.9 km/h 11.9 km/h 54 % 0 mm
19:32 -12.5 °C -17.3 °C 34428.8 hPa NE 9.8 km/h 9.8 km/h 55 % 0 mm
19:37 -12.6 °C -17.3 °C 34428.8 hPa NNE 7.6 km/h 10.3 km/h 55 % 0 mm
19:42 -12.7 °C -17.4 °C 34428.8 hPa NNE 9 km/h 9 km/h 55 % 0 mm
19:47 -12.7 °C -17.3 °C 34428.8 hPa NNE 9 km/h 9 km/h 56 % 0 mm
19:52 -12.8 °C -17.4 °C 34428.8 hPa NE 12.2 km/h 12.2 km/h 56 % 0 mm
19:57 -12.8 °C -17.2 °C 34428.8 hPa ENE 15 km/h 15 km/h 58 % 0 mm
20:02 -12.9 °C -17.2 °C 34428.8 hPa ENE 15 km/h 15 km/h 58 % 0 mm
20:07 -12.9 °C -17.1 °C 34428.8 hPa ENE 15 km/h 15 km/h 60 % 0 mm
20:12 -12.9 °C -17.1 °C 34395 hPa ENE 15 km/h 15 km/h 60 % 0 mm
20:15 -15.5 °C -19.8 °C 34462.7 hPa Calm   5.1 km/h 57 % 0 mm
20:17 -13 °C -16.8 °C 34395 hPa ENE 15 km/h 15 km/h 62 % 0 mm
20:22 -13 °C -16.8 °C 34395 hPa ENE 15 km/h 15 km/h 62 % 0 mm
20:27 -13.1 °C -16.9 °C 34462.7 hPa ENE 15 km/h 15 km/h 62 % 0 mm
20:32 -13.1 °C -16.8 °C 34462.7 hPa ENE 15 km/h 15 km/h 63 % 0 mm
20:35 -15.4 °C -20.1 °C 34462.7 hPa Calm   5.1 km/h 54 % 0 mm
20:37 -13.1 °C -16.8 °C 34462.7 hPa ENE 15 km/h 15 km/h 63 % 0 mm
20:42 -13.1 °C -16.8 °C 34428.8 hPa ENE 15 km/h 15 km/h 63 % 0 mm
20:45 -15.5 °C -20.3 °C 34462.7 hPa South 5.1 km/h 5.1 km/h 53 % 0 mm
20:47 -13.1 °C -16.7 °C 34428.8 hPa ENE 15 km/h 15 km/h 64 % 0 mm
20:52 -13.1 °C -16.7 °C 34428.8 hPa ENE 15 km/h 15 km/h 64 % 0 mm
20:55 -15.7 °C -20.5 °C 34462.7 hPa South 2.6 km/h 7.7 km/h 53 % 0 mm
20:57 -13.1 °C -16.7 °C 34462.7 hPa ENE 15 km/h 15 km/h 64 % 0 mm
21:02 -13.2 °C -16.7 °C 34462.7 hPa ENE 15 km/h 15 km/h 64 % 0 mm
21:05 -15.8 °C -20.7 °C 34462.7 hPa Calm     53 % 0 mm
21:07 -13.2 °C -16.7 °C 34462.7 hPa ENE 15 km/h 15 km/h 64 % 0 mm
21:12 -13.2 °C -16.7 °C 34462.7 hPa ENE 15 km/h 15 km/h 65 % 0 mm
21:15 -15.9 °C -20.9 °C 34428.8 hPa Calm   2.6 km/h 52 % 0 mm
21:17 -13.2 °C -16.7 °C 34462.7 hPa ENE 15 km/h 15 km/h 65 % 0 mm
21:22 -13.2 °C -16.7 °C 34462.7 hPa ENE 15 km/h 15 km/h 65 % 0 mm
21:25 -15.9 °C -20.9 °C 34428.8 hPa Calm   5.1 km/h 52 % 0 mm
21:27 -13.3 °C -16.7 °C 34428.8 hPa NNE 15 km/h 15 km/h 65 % 0 mm
21:32 -13.3 °C -16.7 °C 34428.8 hPa NNE 6.3 km/h 6.8 km/h 65 % 0 mm
21:35 -16.1 °C -21 °C 34428.8 hPa WSW 5.1 km/h 5.1 km/h 52 % 0 mm
21:37 -13.3 °C -16.8 °C 34428.8 hPa NNE 6.3 km/h 6.8 km/h 65 % 0 mm
21:42 -13.4 °C -16.8 °C 34462.7 hPa NNE 6.3 km/h 6.8 km/h 65 % 0 mm
21:45 -15.9 °C -21 °C 34428.8 hPa WSW 5.1 km/h 7.7 km/h 51 % 0 mm
21:47 -13.4 °C -16.9 °C 34462.7 hPa NNE 6.3 km/h 6.8 km/h 65 % 0 mm
21:52 -13.4 °C -16.9 °C 34462.7 hPa NNE 6.3 km/h 6.8 km/h 65 % 0 mm
21:55 -15.9 °C -21.2 °C 34428.8 hPa SW 5.1 km/h 7.7 km/h 50 % 0 mm
21:57 -13.5 °C -16.9 °C 34462.7 hPa NNE 6.3 km/h 6.8 km/h 65 % 0 mm
22:02 -13.6 °C -17 °C 34462.7 hPa NNE 6.3 km/h 6.8 km/h 65 % 0 mm
22:05 -15.9 °C -21.3 °C 34428.8 hPa SW 5.1 km/h 7.7 km/h 49 % 0 mm
22:07 -13.6 °C -16.8 °C 34462.7 hPa NNE 6.3 km/h 6.8 km/h 66 % 0 mm
22:17 -13.6 °C -17 °C 34462.7 hPa NNE 6.3 km/h 6.8 km/h 65 % 0 mm
22:22 -13.6 °C -16.8 °C 34462.7 hPa NNE 6.3 km/h 6.8 km/h 66 % 0 mm
22:25 -16.1 °C -21.6 °C 34395 hPa SW 5.1 km/h 5.1 km/h 48 % 0 mm
22:27 -13.6 °C -16.9 °C 34462.7 hPa NNE 6.3 km/h 6.8 km/h 66 % 0 mm
22:32 -13.7 °C -17 °C 34462.7 hPa NE 9.8 km/h 9.8 km/h 66 % 0 mm
22:35 -16.1 °C -21.6 °C 34395 hPa WSW 5.1 km/h 7.7 km/h 48 % 0 mm
22:37 -13.6 °C -16.9 °C 34462.7 hPa NE 9.8 km/h 9.8 km/h 66 % 0 mm
22:42 -13.7 °C -17 °C 34462.7 hPa NE 9.8 km/h 9.8 km/h 66 % 0 mm
22:45 -16.1 °C -21.8 °C 34395 hPa Calm   5.1 km/h 47 % 0 mm
22:47 -13.7 °C -17 °C 34462.7 hPa NE 9.8 km/h 9.8 km/h 66 % 0 mm
22:52 -13.7 °C -17 °C 34462.7 hPa NE 6.3 km/h 6.3 km/h 66 % 0 mm
22:55 -16.2 °C -21.9 °C 34395 hPa West 2.6 km/h 5.1 km/h 47 % 0 mm
22:57 -13.7 °C -17 °C 34462.7 hPa NE 6.3 km/h 6.3 km/h 66 % 0 mm
23:02 -13.7 °C -17 °C 34462.7 hPa NE 6.3 km/h 6.3 km/h 66 % 0 mm
23:05 -16.3 °C -22 °C 34428.8 hPa Calm   5.1 km/h 47 % 0 mm
23:07 -13.8 °C -17.1 °C 34462.7 hPa NNE 11.9 km/h 11.9 km/h 66 % 0 mm
23:12 -13.8 °C -17.1 °C 34462.7 hPa NNE 11.9 km/h 11.9 km/h 66 % 0 mm
23:15 -16.5 °C -22 °C 34395 hPa East 2.6 km/h 7.7 km/h 48 % 0 mm
23:17 -13.8 °C -16.9 °C 34462.7 hPa NNE 9 km/h 9 km/h 67 % 0 mm
23:22 -13.9 °C -17.2 °C 34462.7 hPa NNE 6.3 km/h 6.8 km/h 66 % 0 mm
23:25 -16.6 °C -22.3 °C 34395 hPa SW 2.6 km/h 5.1 km/h 47 % 0 mm
23:35 -16.7 °C -22.3 °C 34428.8 hPa SW 2.6 km/h 2.6 km/h 47 % 0 mm
23:45 -16.7 °C -22.3 °C 34395 hPa Calm   7.7 km/h 47 % 0 mm
23:55 -16.7 °C -22.3 °C 34395 hPa Calm   2.6 km/h 47 % 0 mm
Meteo Sesrovires
Elogis d' Weather Underground - 3.5 mb

Guio original per  Jim McMurry - jmcmurry@mwt.net Adaptat per a la plantilla per  Wim van der Kuil - Leuven-Template.eu

Trobareu la nostra informacio del temps tambe a:

Weather Underground

AWEKAS